sensor_id;sensor_type;location;lat;lon;timestamp;pressure;altitude;pressure_sealevel;temperature;humidity
63395;BME280;49531;-34.520;150.798;2023-07-02T00:02:27;102254.66;;;15.74;45.16
63395;BME280;49531;-34.520;150.798;2023-07-02T00:04:54;102253.94;;;15.65;45.48
63395;BME280;49531;-34.520;150.798;2023-07-02T00:07:21;102256.19;;;15.62;45.65
63395;BME280;49531;-34.520;150.798;2023-07-02T00:12:39;102251.06;;;15.67;45.68
63395;BME280;49531;-34.520;150.798;2023-07-02T00:15:06;102235.88;;;15.45;46.14
63395;BME280;49531;-34.520;150.798;2023-07-02T00:17:36;102225.84;;;15.39;46.39
63395;BME280;49531;-34.520;150.798;2023-07-02T00:20:20;102249.97;;;15.61;46.25
63395;BME280;49531;-34.520;150.798;2023-07-02T00:22:55;102194.38;;;15.39;45.93
63395;BME280;49531;-34.520;150.798;2023-07-02T00:25:36;102196.50;;;15.44;45.72
63395;BME280;49531;-34.520;150.798;2023-07-02T00:28:17;102208.34;;;15.64;46.26
63395;BME280;49531;-34.520;150.798;2023-07-02T00:30:53;102205.06;;;15.68;46.10
63395;BME280;49531;-34.520;150.798;2023-07-02T00:34:08;102158.69;;;15.52;45.99
63395;BME280;49531;-34.520;150.798;2023-07-02T00:36:41;102126.50;;;15.44;46.42
63395;BME280;49531;-34.520;150.798;2023-07-02T00:39:24;102203.31;;;16.04;46.35
63395;BME280;49531;-34.520;150.798;2023-07-02T00:41:51;102215.00;;;16.11;46.25
63395;BME280;49531;-34.520;150.798;2023-07-02T00:44:18;102189.47;;;16.07;46.36
63395;BME280;49531;-34.520;150.798;2023-07-02T00:46:45;102212.72;;;16.36;46.13
63395;BME280;49531;-34.520;150.798;2023-07-02T00:49:12;102219.63;;;16.45;46.15
63395;BME280;49531;-34.520;150.798;2023-07-02T00:51:40;102222.38;;;16.51;46.10
63395;BME280;49531;-34.520;150.798;2023-07-02T00:54:07;102210.41;;;16.60;45.89
63395;BME280;49531;-34.520;150.798;2023-07-02T00:56:34;102210.47;;;16.67;45.85
63395;BME280;49531;-34.520;150.798;2023-07-02T00:59:01;102207.19;;;16.72;45.93
63395;BME280;49531;-34.520;150.798;2023-07-02T01:01:28;102203.69;;;16.78;45.94
63395;BME280;49531;-34.520;150.798;2023-07-02T01:04:03;102209.69;;;16.80;45.67
63395;BME280;49531;-34.520;150.798;2023-07-02T01:06:35;102198.06;;;16.73;45.67
63395;BME280;49531;-34.520;150.798;2023-07-02T01:09:06;102186.03;;;16.75;45.67
63395;BME280;49531;-34.520;150.798;2023-07-02T01:11:38;102195.59;;;16.78;45.52
63395;BME280;49531;-34.520;150.798;2023-07-02T01:14:15;102189.78;;;16.74;45.51
63395;BME280;49531;-34.520;150.798;2023-07-02T01:16:44;102153.94;;;16.59;45.61
63395;BME280;49531;-34.520;150.798;2023-07-02T01:19:31;102182.53;;;16.81;45.31
63395;BME280;49531;-34.520;150.798;2023-07-02T01:22:00;102182.78;;;16.93;45.35
63395;BME280;49531;-34.520;150.798;2023-07-02T01:24:28;102180.72;;;16.95;45.49
63395;BME280;49531;-34.520;150.798;2023-07-02T01:26:55;102161.44;;;16.98;45.12
63395;BME280;49531;-34.520;150.798;2023-07-02T01:29:22;102176.63;;;17.06;45.22
63395;BME280;49531;-34.520;150.798;2023-07-02T01:31:49;102174.56;;;17.08;45.33
63395;BME280;49531;-34.520;150.798;2023-07-02T01:34:16;102180.19;;;17.13;44.97
63395;BME280;49531;-34.520;150.798;2023-07-02T01:36:43;102169.81;;;17.16;45.21
63395;BME280;49531;-34.520;150.798;2023-07-02T01:39:10;102154.66;;;17.15;45.08
63395;BME280;49531;-34.520;150.798;2023-07-02T01:42:13;102149.03;;;17.23;45.04
63395;BME280;49531;-34.520;150.798;2023-07-02T01:44:46;102156.75;;;17.33;44.92
63395;BME280;49531;-34.520;150.798;2023-07-02T01:47:13;102153.22;;;17.32;44.89
63395;BME280;49531;-34.520;150.798;2023-07-02T01:49:41;102163.66;;;17.42;44.81
63395;BME280;49531;-34.520;150.798;2023-07-02T01:52:09;102151.19;;;17.41;44.76
63395;BME280;49531;-34.520;150.798;2023-07-02T01:54:36;102141.84;;;17.44;44.72
63395;BME280;49531;-34.520;150.798;2023-07-02T01:57:03;102148.50;;;17.48;44.96
63395;BME280;49531;-34.520;150.798;2023-07-02T01:59:30;102142.88;;;17.49;44.80
63395;BME280;49531;-34.520;150.798;2023-07-02T02:01:57;102137.28;;;17.51;44.70
63395;BME280;49531;-34.520;150.798;2023-07-02T02:04:24;102134.97;;;17.61;44.65
63395;BME280;49531;-34.520;150.798;2023-07-02T02:06:51;102129.59;;;17.61;44.52
63395;BME280;49531;-34.520;150.798;2023-07-02T02:09:19;102132.31;;;17.67;44.57
63395;BME280;49531;-34.520;150.798;2023-07-02T02:11:49;102131.28;;;17.69;44.65
63395;BME280;49531;-34.520;150.798;2023-07-02T02:14:16;102125.25;;;17.66;44.57
63395;BME280;49531;-34.520;150.798;2023-07-02T02:16:44;102119.41;;;17.63;44.39
63395;BME280;49531;-34.520;150.798;2023-07-02T02:19:14;102119.66;;;17.68;44.46
63395;BME280;49531;-34.520;150.798;2023-07-02T02:21:42;102119.84;;;17.73;44.59
63395;BME280;49531;-34.520;150.798;2023-07-02T02:24:09;102096.56;;;17.72;44.32
63395;BME280;49531;-34.520;150.798;2023-07-02T02:26:36;102114.25;;;17.81;44.54
63395;BME280;49531;-34.520;150.798;2023-07-02T02:29:03;102102.41;;;17.82;44.43
63395;BME280;49531;-34.520;150.798;2023-07-02T02:31:31;102084.94;;;17.78;44.27
63395;BME280;49531;-34.520;150.798;2023-07-02T02:33:58;102068.31;;;17.75;44.24
63395;BME280;49531;-34.520;150.798;2023-07-02T02:36:24;102080.78;;;17.82;44.46
63395;BME280;49531;-34.520;150.798;2023-07-02T02:38:52;102073.72;;;17.81;44.50
63395;BME280;49531;-34.520;150.798;2023-07-02T02:41:19;102062.50;;;17.78;44.33
63395;BME280;49531;-34.520;150.798;2023-07-02T02:43:46;102070.59;;;17.91;44.23
63395;BME280;49531;-34.520;150.798;2023-07-02T02:46:18;102069.56;;;17.92;44.21
63395;BME280;49531;-34.520;150.798;2023-07-02T02:48:46;102072.03;;;17.93;44.13
63395;BME280;49531;-34.520;150.798;2023-07-02T02:51:13;102063.31;;;17.91;44.15
63395;BME280;49531;-34.520;150.798;2023-07-02T02:53:40;102051.88;;;17.96;43.98
63395;BME280;49531;-34.520;150.798;2023-07-02T02:56:08;102041.44;;;17.99;43.89
63395;BME280;49531;-34.520;150.798;2023-07-02T02:58:35;102047.31;;;17.96;43.83
63395;BME280;49531;-34.520;150.798;2023-07-02T03:01:02;102038.16;;;17.97;43.93
63395;BME280;49531;-34.520;150.798;2023-07-02T03:03:40;102046.44;;;18.03;43.93
63395;BME280;49531;-34.520;150.798;2023-07-02T03:06:12;102045.38;;;18.04;43.77
63395;BME280;49531;-34.520;150.798;2023-07-02T03:08:39;102037.91;;;18.06;43.82
63395;BME280;49531;-34.520;150.798;2023-07-02T03:11:07;102019.81;;;17.99;43.93
63395;BME280;49531;-34.520;150.798;2023-07-02T03:13:34;102040.81;;;18.04;43.71
63395;BME280;49531;-34.520;150.798;2023-07-02T03:16:01;102045.78;;;18.07;43.93
63395;BME280;49531;-34.520;150.798;2023-07-02T03:18:28;102005.91;;;17.96;43.88
63395;BME280;49531;-34.520;150.798;2023-07-02T03:20:55;102005.66;;;18.04;43.48
63395;BME280;49531;-34.520;150.798;2023-07-02T03:23:22;102024.19;;;18.00;43.61
63395;BME280;49531;-34.520;150.798;2023-07-02T03:25:55;102018.34;;;18.04;43.80
63395;BME280;49531;-34.520;150.798;2023-07-02T03:28:22;102002.53;;;18.00;44.13
63395;BME280;49531;-34.520;150.798;2023-07-02T03:30:49;102001.97;;;17.98;44.26
63395;BME280;49531;-34.520;150.798;2023-07-02T03:33:16;102004.81;;;18.04;44.47
63395;BME280;49531;-34.520;150.798;2023-07-02T03:35:43;102002.53;;;18.14;44.00
63395;BME280;49531;-34.520;150.798;2023-07-02T03:38:10;101989.63;;;18.09;44.01
63395;BME280;49531;-34.520;150.798;2023-07-02T03:40:37;101990.03;;;18.13;44.12
63395;BME280;49531;-34.520;150.798;2023-07-02T03:43:04;101997.72;;;18.16;44.11
63395;BME280;49531;-34.520;150.798;2023-07-02T03:45:31;101986.91;;;18.16;43.59
63395;BME280;49531;-34.520;150.798;2023-07-02T03:47:58;102000.00;;;18.19;43.81
63395;BME280;49531;-34.520;150.798;2023-07-02T03:50:25;102000.03;;;18.12;44.42
63395;BME280;49531;-34.520;150.798;2023-07-02T03:52:52;101991.50;;;18.09;44.48
63395;BME280;49531;-34.520;150.798;2023-07-02T03:55:19;102003.34;;;18.14;44.56
63395;BME280;49531;-34.520;150.798;2023-07-02T03:57:47;101989.41;;;18.11;44.46
63395;BME280;49531;-34.520;150.798;2023-07-02T04:00:14;101997.91;;;18.21;44.12
63395;BME280;49531;-34.520;150.798;2023-07-02T04:02:41;101987.94;;;18.15;44.18
63395;BME280;49531;-34.520;150.798;2023-07-02T04:05:08;101979.00;;;18.21;43.72
63395;BME280;49531;-34.520;150.798;2023-07-02T04:07:35;101991.28;;;18.17;43.90
63395;BME280;49531;-34.520;150.798;2023-07-02T04:10:02;101986.28;;;18.14;43.96
63395;BME280;49531;-34.520;150.798;2023-07-02T04:12:30;101986.72;;;18.11;44.07
63395;BME280;49531;-34.520;150.798;2023-07-02T04:14:57;101989.16;;;18.25;43.50
63395;BME280;49531;-34.520;150.798;2023-07-02T04:17:24;102002.28;;;18.22;43.94
63395;BME280;49531;-34.520;150.798;2023-07-02T04:19:54;101993.78;;;18.12;44.51
63395;BME280;49531;-34.520;150.798;2023-07-02T04:22:21;102003.97;;;18.10;44.56
63395;BME280;49531;-34.520;150.798;2023-07-02T04:24:48;102007.31;;;18.12;44.35
63395;BME280;49531;-34.520;150.798;2023-07-02T04:27:16;101963.66;;;18.02;44.78
63395;BME280;49531;-34.520;150.798;2023-07-02T04:29:46;101994.63;;;18.12;44.84
63395;BME280;49531;-34.520;150.798;2023-07-02T04:32:13;102007.31;;;18.12;44.76
63395;BME280;49531;-34.520;150.798;2023-07-02T04:34:40;101984.22;;;18.09;44.46
63395;BME280;49531;-34.520;150.798;2023-07-02T04:37:09;102001.69;;;18.13;44.45
63395;BME280;49531;-34.520;150.798;2023-07-02T04:39:36;102003.78;;;18.11;44.37
63395;BME280;49531;-34.520;150.798;2023-07-02T04:42:03;101979.44;;;18.11;44.29
63395;BME280;49531;-34.520;150.798;2023-07-02T04:44:31;102004.19;;;18.15;44.29
63395;BME280;49531;-34.520;150.798;2023-07-02T04:46:58;102014.16;;;18.14;44.40
63395;BME280;49531;-34.520;150.798;2023-07-02T04:49:25;102011.47;;;18.08;44.52
63395;BME280;49531;-34.520;150.798;2023-07-02T04:51:53;102009.38;;;18.10;44.48
63395;BME280;49531;-34.520;150.798;2023-07-02T04:54:21;102005.44;;;18.06;44.53
63395;BME280;49531;-34.520;150.798;2023-07-02T04:56:48;102014.59;;;18.05;44.83
63395;BME280;49531;-34.520;150.798;2023-07-02T04:59:15;102015.66;;;18.04;44.98
63395;BME280;49531;-34.520;150.798;2023-07-02T05:01:42;102003.78;;;18.05;45.18
63395;BME280;49531;-34.520;150.798;2023-07-02T05:04:11;102032.50;;;18.06;45.01
63395;BME280;49531;-34.520;150.798;2023-07-02T05:06:44;102043.94;;;18.01;44.89
63395;BME280;49531;-34.520;150.798;2023-07-02T05:09:11;102037.91;;;18.06;44.92
63395;BME280;49531;-34.520;150.798;2023-07-02T05:11:38;102041.88;;;17.96;45.08
63395;BME280;49531;-34.520;150.798;2023-07-02T05:14:05;102042.06;;;18.02;44.96
63395;BME280;49531;-34.520;150.798;2023-07-02T05:16:32;102036.28;;;17.98;45.34
63395;BME280;49531;-34.520;150.798;2023-07-02T05:18:59;102052.03;;;18.08;45.26
63395;BME280;49531;-34.520;150.798;2023-07-02T05:21:26;102055.56;;;18.02;45.38
63395;BME280;49531;-34.520;150.798;2023-07-02T05:23:53;102055.81;;;17.93;45.60
63395;BME280;49531;-34.520;150.798;2023-07-02T05:26:20;102061.03;;;17.82;45.75
63395;BME280;49531;-34.520;150.798;2023-07-02T05:28:47;102047.72;;;17.67;46.33
63395;BME280;49531;-34.520;150.798;2023-07-02T05:31:14;102071.44;;;17.85;46.58
63395;BME280;49531;-34.520;150.798;2023-07-02T05:33:41;102066.22;;;17.83;46.55
63395;BME280;49531;-34.520;150.798;2023-07-02T05:36:08;102048.75;;;17.66;46.83
63395;BME280;49531;-34.520;150.798;2023-07-02T05:38:35;102078.69;;;17.84;46.93
63395;BME280;49531;-34.520;150.798;2023-07-02T05:41:03;102076.22;;;17.76;46.91
63395;BME280;49531;-34.520;150.798;2023-07-02T05:43:36;102087.44;;;17.86;46.90
63395;BME280;49531;-34.520;150.798;2023-07-02T05:46:03;102063.94;;;17.80;46.80
63395;BME280;49531;-34.520;150.798;2023-07-02T05:48:30;102059.56;;;17.73;47.26
63395;BME280;49531;-34.520;150.798;2023-07-02T05:51:00;102099.69;;;17.76;47.76
63395;BME280;49531;-34.520;150.798;2023-07-02T05:53:27;102101.34;;;17.70;47.34
63395;BME280;49531;-34.520;150.798;2023-07-02T05:55:54;102095.31;;;17.68;47.14
63395;BME280;49531;-34.520;150.798;2023-07-02T05:58:21;102117.34;;;17.65;47.14
63395;BME280;49531;-34.520;150.798;2023-07-02T06:00:48;102126.69;;;17.62;47.53
63395;BME280;49531;-34.520;150.798;2023-07-02T06:03:19;102095.75;;;17.65;47.19
63395;BME280;49531;-34.520;150.798;2023-07-02T06:05:47;102098.00;;;17.55;47.30
63395;BME280;49531;-34.520;150.798;2023-07-02T06:08:18;102130.63;;;17.60;47.34
63395;BME280;49531;-34.520;150.798;2023-07-02T06:10:46;102099.88;;;17.54;46.71
63395;BME280;49531;-34.520;150.798;2023-07-02T06:13:14;102101.34;;;17.57;46.89
63395;BME280;49531;-34.520;150.798;2023-07-02T06:15:41;102101.13;;;17.52;46.70
63395;BME280;49531;-34.520;150.798;2023-07-02T06:18:08;102104.84;;;17.64;46.76
63395;BME280;49531;-34.520;150.798;2023-07-02T06:20:35;102093.88;;;17.65;46.52
63395;BME280;49531;-34.520;150.798;2023-07-02T06:23:02;102090.72;;;17.62;46.63
63395;BME280;49531;-34.520;150.798;2023-07-02T06:25:32;102098.63;;;17.63;46.31
63395;BME280;49531;-34.520;150.798;2023-07-02T06:27:59;102113.84;;;17.71;46.25
63395;BME280;49531;-34.520;150.798;2023-07-02T06:30:26;102110.09;;;17.72;46.17
63395;BME280;49531;-34.520;150.798;2023-07-02T06:32:54;102110.31;;;17.77;46.07
63395;BME280;49531;-34.520;150.798;2023-07-02T06:35:21;102092.63;;;17.68;45.95
63395;BME280;49531;-34.520;150.798;2023-07-02T06:37:48;102111.97;;;17.78;45.87
63395;BME280;49531;-34.520;150.798;2023-07-02T06:40:15;102111.75;;;17.73;45.79
63395;BME280;49531;-34.520;150.798;2023-07-02T06:42:42;102107.38;;;17.72;45.75
63395;BME280;49531;-34.520;150.798;2023-07-02T06:45:09;102107.38;;;17.72;45.77
63395;BME280;49531;-34.520;150.798;2023-07-02T06:47:36;102122.34;;;17.75;45.62
63395;BME280;49531;-34.520;150.798;2023-07-02T06:50:04;102125.69;;;17.77;45.58
63395;BME280;49531;-34.520;150.798;2023-07-02T06:52:31;102119.03;;;17.73;45.45
63395;BME280;49531;-34.520;150.798;2023-07-02T06:54:58;102101.75;;;17.54;45.64
63395;BME280;49531;-34.520;150.798;2023-07-02T06:57:25;102113.81;;;17.58;45.38
63395;BME280;49531;-34.520;150.798;2023-07-02T06:59:52;102147.72;;;17.74;45.48
63395;BME280;49531;-34.520;150.798;2023-07-02T07:02:25;102145.19;;;17.59;45.30
63395;BME280;49531;-34.520;150.798;2023-07-02T07:04:53;102160.59;;;17.65;45.01
63395;BME280;49531;-34.520;150.798;2023-07-02T07:07:20;102175.56;;;17.67;45.29
63395;BME280;49531;-34.520;150.798;2023-07-02T07:09:47;102174.94;;;17.65;45.14
63395;BME280;49531;-34.520;150.798;2023-07-02T07:15:36;102170.56;;;17.58;44.98
63395;BME280;49531;-34.520;150.798;2023-07-02T07:18:03;102159.94;;;17.56;44.97
63395;BME280;49531;-34.520;150.798;2023-07-02T07:20:31;102160.13;;;17.61;44.85
63395;BME280;49531;-34.520;150.798;2023-07-02T07:22:58;102172.63;;;17.56;44.99
63395;BME280;49531;-34.520;150.798;2023-07-02T07:25:25;102170.97;;;17.55;45.01
63395;BME280;49531;-34.520;150.798;2023-07-02T07:27:52;102155.56;;;17.49;45.04
63395;BME280;49531;-34.520;150.798;2023-07-02T07:30:20;102157.63;;;17.47;44.92
63395;BME280;49531;-34.520;150.798;2023-07-02T07:32:52;102161.78;;;17.43;44.93
63395;BME280;49531;-34.520;150.798;2023-07-02T07:35:21;102170.09;;;17.48;44.90
63395;BME280;49531;-34.520;150.798;2023-07-02T07:37:48;102186.94;;;17.50;44.88
63395;BME280;49531;-34.520;150.798;2023-07-02T07:40:15;102176.31;;;17.35;44.84
63395;BME280;49531;-34.520;150.798;2023-07-02T07:42:42;102183.38;;;17.43;44.74
63395;BME280;49531;-34.520;150.798;2023-07-02T07:45:10;102194.41;;;17.48;44.94
63395;BME280;49531;-34.520;150.798;2023-07-02T07:47:38;102205.00;;;17.43;44.82
63395;BME280;49531;-34.520;150.798;2023-07-02T07:50:06;102205.44;;;17.46;44.65
63395;BME280;49531;-34.520;150.798;2023-07-02T07:52:38;102202.53;;;17.48;44.47
63395;BME280;49531;-34.520;150.798;2023-07-02T07:58:27;102191.28;;;17.38;44.52
63395;BME280;49531;-34.520;150.798;2023-07-02T08:00:54;102196.66;;;17.38;44.28
63395;BME280;49531;-34.520;150.798;2023-07-02T08:03:21;102211.63;;;17.40;44.58
63395;BME280;49531;-34.520;150.798;2023-07-02T08:05:48;102195.81;;;17.30;44.71
63395;BME280;49531;-34.520;150.798;2023-07-02T08:08:15;102201.00;;;17.32;44.61
63395;BME280;49531;-34.520;150.798;2023-07-02T08:10:42;102202.88;;;17.31;44.61
63395;BME280;49531;-34.520;150.798;2023-07-02T08:13:09;102186.66;;;17.18;44.71
63395;BME280;49531;-34.520;150.798;2023-07-02T08:15:37;102215.56;;;17.31;44.72
63395;BME280;49531;-34.520;150.798;2023-07-02T08:18:04;102207.84;;;17.28;44.78
63395;BME280;49531;-34.520;150.798;2023-07-02T08:20:33;102197.22;;;17.20;44.87
63395;BME280;49531;-34.520;150.798;2023-07-02T08:23:00;102206.16;;;17.20;44.80
63395;BME280;49531;-34.520;150.798;2023-07-02T08:25:27;102195.34;;;17.20;44.78
63395;BME280;49531;-34.520;150.798;2023-07-02T08:27:55;102208.06;;;17.26;44.98
63395;BME280;49531;-34.520;150.798;2023-07-02T08:30:22;102201.59;;;17.21;44.93
63395;BME280;49531;-34.520;150.798;2023-07-02T08:32:49;102206.78;;;17.22;45.08
63395;BME280;49531;-34.520;150.798;2023-07-02T08:35:16;102204.09;;;17.22;44.94
63395;BME280;49531;-34.520;150.798;2023-07-02T08:37:43;102219.91;;;17.32;44.96
63395;BME280;49531;-34.520;150.798;2023-07-02T08:40:17;102217.84;;;17.34;44.99
63395;BME280;49531;-34.520;150.798;2023-07-02T08:42:47;102220.56;;;17.41;44.92
63395;BME280;49531;-34.520;150.798;2023-07-02T08:45:16;102219.53;;;17.42;44.80
63395;BME280;49531;-34.520;150.798;2023-07-02T08:47:44;102209.13;;;17.39;44.70
63395;BME280;49531;-34.520;150.798;2023-07-02T08:50:13;102215.41;;;17.46;44.76
63395;BME280;49531;-34.520;150.798;2023-07-02T08:52:40;102201.25;;;17.37;44.88
63395;BME280;49531;-34.520;150.798;2023-07-02T08:55:09;102205.00;;;17.43;44.68
63395;BME280;49531;-34.520;150.798;2023-07-02T08:57:36;102212.47;;;17.41;44.54
63395;BME280;49531;-34.520;150.798;2023-07-02T09:00:10;102210.56;;;17.34;44.79
63395;BME280;49531;-34.520;150.798;2023-07-02T09:02:37;102223.28;;;17.41;44.81
63395;BME280;49531;-34.520;150.798;2023-07-02T09:05:04;102228.69;;;17.41;44.69
63395;BME280;49531;-34.520;150.798;2023-07-02T09:07:31;102235.34;;;17.45;44.55
63395;BME280;49531;-34.520;150.798;2023-07-02T09:09:58;102234.94;;;17.48;44.43
63395;BME280;49531;-34.520;150.798;2023-07-02T09:12:34;102238.03;;;17.45;44.68
63395;BME280;49531;-34.520;150.798;2023-07-02T09:15:04;102224.50;;;17.38;44.34
63395;BME280;49531;-34.520;150.798;2023-07-02T09:17:38;102218.28;;;17.38;44.44
63395;BME280;49531;-34.520;150.798;2023-07-02T09:20:06;102213.28;;;17.34;44.64
63395;BME280;49531;-34.520;150.798;2023-07-02T09:22:35;102203.50;;;17.33;44.47
63395;BME280;49531;-34.520;150.798;2023-07-02T09:25:03;102204.97;;;17.36;44.51
63395;BME280;49531;-34.520;150.798;2023-07-02T09:27:40;102220.56;;;17.41;44.30
63395;BME280;49531;-34.520;150.798;2023-07-02T09:30:12;102217.06;;;17.47;44.26
63395;BME280;49531;-34.520;150.798;2023-07-02T09:32:50;102213.72;;;17.45;44.34
63395;BME280;49531;-34.520;150.798;2023-07-02T09:35:19;102226.41;;;17.44;44.25
63395;BME280;49531;-34.520;150.798;2023-07-02T09:37:46;102227.44;;;17.43;44.32
63395;BME280;49531;-34.520;150.798;2023-07-02T09:40:15;102226.59;;;17.43;44.25
63395;BME280;49531;-34.520;150.798;2023-07-02T09:42:46;102217.84;;;17.34;44.20
63395;BME280;49531;-34.520;150.798;2023-07-02T09:45:19;102234.50;;;17.44;44.24
63395;BME280;49531;-34.520;150.798;2023-07-02T09:47:49;102232.41;;;17.40;44.20
63395;BME280;49531;-34.520;150.798;2023-07-02T09:50:18;102234.31;;;17.46;44.13
63395;BME280;49531;-34.520;150.798;2023-07-02T09:52:47;102232.81;;;17.37;44.05
63395;BME280;49531;-34.520;150.798;2023-07-02T09:55:15;102225.13;;;17.33;44.25
63395;BME280;49531;-34.520;150.798;2023-07-02T09:57:43;102225.75;;;17.36;44.27
63395;BME280;49531;-34.520;150.798;2023-07-02T10:00:16;102231.59;;;17.39;44.12
63395;BME280;49531;-34.520;150.798;2023-07-02T10:02:48;102227.66;;;17.42;44.15
63395;BME280;49531;-34.520;150.798;2023-07-02T10:05:29;102232.66;;;17.45;43.92
63395;BME280;49531;-34.520;150.798;2023-07-02T10:07:57;102203.09;;;17.37;43.98
63395;BME280;49531;-34.520;150.798;2023-07-02T10:10:34;102192.72;;;17.33;44.00
63395;BME280;49531;-34.520;150.798;2023-07-02T10:13:01;102204.75;;;17.31;44.01
63395;BME280;49531;-34.520;150.798;2023-07-02T10:15:29;102212.25;;;17.36;44.16
63395;BME280;49531;-34.520;150.798;2023-07-02T10:17:59;102214.31;;;17.33;44.17
63395;BME280;49531;-34.520;150.798;2023-07-02T10:20:37;102217.00;;;17.33;44.23
63395;BME280;49531;-34.520;150.798;2023-07-02T10:23:06;102194.31;;;17.21;44.07
63395;BME280;49531;-34.520;150.798;2023-07-02T10:25:37;102193.09;;;17.17;44.29
63395;BME280;49531;-34.520;150.798;2023-07-02T10:28:22;102208.25;;;17.18;44.35
63395;BME280;49531;-34.520;150.798;2023-07-02T10:30:55;102222.34;;;17.20;44.56
63395;BME280;49531;-34.520;150.798;2023-07-02T10:33:23;102189.94;;;17.07;44.25
63395;BME280;49531;-34.520;150.798;2023-07-02T10:35:50;102204.91;;;17.16;44.22
63395;BME280;49531;-34.520;150.798;2023-07-02T10:38:24;102196.19;;;17.14;44.18
63395;BME280;49531;-34.520;150.798;2023-07-02T10:40:59;102196.81;;;17.16;44.35
63395;BME280;49531;-34.520;150.798;2023-07-02T10:43:27;102204.53;;;17.19;44.22
63395;BME280;49531;-34.520;150.798;2023-07-02T10:45:55;102187.47;;;17.12;44.16
63395;BME280;49531;-34.520;150.798;2023-07-02T10:48:22;102177.44;;;16.99;44.35
63395;BME280;49531;-34.520;150.798;2023-07-02T10:50:49;102203.25;;;17.15;44.19
63395;BME280;49531;-34.520;150.798;2023-07-02T10:53:18;102212.16;;;17.09;44.26
63395;BME280;49531;-34.520;150.798;2023-07-02T10:55:55;102214.88;;;17.16;44.36
63395;BME280;49531;-34.520;150.798;2023-07-02T10:58:23;102193.66;;;17.06;44.33
63395;BME280;49531;-34.520;150.798;2023-07-02T11:00:51;102203.47;;;17.14;44.39
63395;BME280;49531;-34.520;150.798;2023-07-02T11:03:20;102200.34;;;17.17;44.30
63395;BME280;49531;-34.520;150.798;2023-07-02T11:05:48;102209.50;;;17.16;44.43
63395;BME280;49531;-34.520;150.798;2023-07-02T11:08:16;102204.91;;;17.16;44.39
63395;BME280;49531;-34.520;150.798;2023-07-02T11:10:43;102200.72;;;17.07;44.20
63395;BME280;49531;-34.520;150.798;2023-07-02T11:13:18;102215.50;;;17.11;44.53
63395;BME280;49531;-34.520;150.798;2023-07-02T11:15:46;102205.88;;;17.02;44.64
63395;BME280;49531;-34.520;150.798;2023-07-02T11:18:17;102201.53;;;17.01;44.52
63395;BME280;49531;-34.520;150.798;2023-07-02T11:20:48;102214.84;;;17.09;44.47
63395;BME280;49531;-34.520;150.798;2023-07-02T11:23:22;102214.84;;;17.09;44.68
63395;BME280;49531;-34.520;150.798;2023-07-02T11:28:24;102200.31;;;17.10;44.59
63395;BME280;49531;-34.520;150.798;2023-07-02T11:30:51;102203.47;;;17.14;44.59
63395;BME280;49531;-34.520;150.798;2023-07-02T11:35:53;102208.84;;;17.14;44.50
63395;BME280;49531;-34.520;150.798;2023-07-02T11:38:20;102206.53;;;17.04;44.78
63395;BME280;49531;-34.520;150.798;2023-07-02T11:40:47;102205.28;;;17.07;44.79
63395;BME280;49531;-34.520;150.798;2023-07-02T11:43:14;102196.75;;;17.03;44.85
63395;BME280;49531;-34.520;150.798;2023-07-02T11:45:43;102201.13;;;17.04;44.87
63395;BME280;49531;-34.520;150.798;2023-07-02T11:48:10;102191.75;;;17.00;44.74
63395;BME280;49531;-34.520;150.798;2023-07-02T11:50:38;102198.44;;;17.04;44.80
63395;BME280;49531;-34.520;150.798;2023-07-02T11:53:05;102198.59;;;16.96;45.00
63395;BME280;49531;-34.520;150.798;2023-07-02T11:55:32;102209.38;;;16.96;45.18
63395;BME280;49531;-34.520;150.798;2023-07-02T11:57:59;102211.69;;;16.99;45.03
63395;BME280;49531;-34.520;150.798;2023-07-02T12:00:26;102201.06;;;16.91;45.25
63395;BME280;49531;-34.520;150.798;2023-07-02T12:02:53;102213.94;;;16.95;45.22
63395;BME280;49531;-34.520;150.798;2023-07-02T12:05:20;102215.66;;;17.03;45.19
63395;BME280;49531;-34.520;150.798;2023-07-02T12:07:48;102219.81;;;17.06;44.99
63395;BME280;49531;-34.520;150.798;2023-07-02T12:10:15;102223.13;;;17.01;45.03
63395;BME280;49531;-34.520;150.798;2023-07-02T12:12:42;102211.06;;;16.97;45.07
63395;BME280;49531;-34.520;150.798;2023-07-02T12:15:09;102217.09;;;16.99;45.10
63395;BME280;49531;-34.520;150.798;2023-07-02T12:17:36;102218.28;;;16.90;45.33
63395;BME280;49531;-34.520;150.798;2023-07-02T12:20:03;102229.31;;;16.95;45.35
63395;BME280;49531;-34.520;150.798;2023-07-02T12:22:30;102205.81;;;16.89;45.44
63395;BME280;49531;-34.520;150.798;2023-07-02T12:24:57;102220.78;;;16.91;45.32
63395;BME280;49531;-34.520;150.798;2023-07-02T12:27:24;102230.75;;;16.91;45.56
63395;BME280;49531;-34.520;150.798;2023-07-02T12:29:53;102226.78;;;16.87;45.54
63395;BME280;49531;-34.520;150.798;2023-07-02T12:32:20;102219.25;;;16.76;45.46
63395;BME280;49531;-34.520;150.798;2023-07-02T12:34:48;102252.13;;;16.92;45.61
63395;BME280;49531;-34.520;150.798;2023-07-02T12:37:15;102235.50;;;16.89;45.57
63395;BME280;49531;-34.520;150.798;2023-07-02T12:39:44;102259.25;;;17.00;45.58
63395;BME280;49531;-34.520;150.798;2023-07-02T12:42:11;102242.81;;;16.95;45.55
63395;BME280;49531;-34.520;150.798;2023-07-02T12:44:38;102249.44;;;16.92;45.69